Flight Track Log - Related Links

Times and Time Zones

All times are in EDT time to prevent confusion due to time zone crossing. See the GGN7281 flight status page for this flight to view local times or setup timezone preferences in your user account.

Time Position Orientation Groundspeed Altitude Reporting Facility
EDT Latitude Longitude Course Direction KTS MPH feet Rate Location/Type
Sun 06:35:35 PM 43.1281 -77.6703 280° West 164 189 1,400  Level Cleveland Center
Sun 06:35:53 PM 43.1383 -77.6611 33° Northeast 166 191 1,800 1,367 Climbing Cleveland Center
Sun 06:36:54 PM 43.1844 -77.6819 342° North 219 252 3,200 1,121 Climbing Cleveland Center
Sun 06:37:40 PM 43.1919 -77.7300 282° West 236 272 3,800 1,075 Climbing Cleveland Center
Sun 06:38:40 PM 43.1961 -77.8153 274° West 243 280 5,100 1,200 Climbing Cleveland Center
Sun 06:39:40 PM 43.1961 -77.9006 270° West 232 267 6,200 1,100 Climbing Cleveland Center
Sun 06:40:40 PM 43.1981 -77.9917 272° West 232 267 7,300 1,200 Climbing Cleveland Center
Sun 06:41:00 PM 43.1426 -77.9740 280° West  Level FlightAware Approximate
Sun 06:41:40 PM 43.2000 -78.0800 272° West 232 267 8,600  Level Cleveland Center
Sun 06:42:40 PM 43.2042 -78.1681 274° West 232 267 9,700 1,100 Climbing Cleveland Center
Sun 06:43:40 PM 43.2058 -78.2564 272° West 232 267 10,800 1,000 Climbing Cleveland Center
Sun 06:44:40 PM 43.2056 -78.3444 270° West 232 267 11,700 600 Climbing Cleveland Center
Sun 06:45:40 PM 43.2072 -78.4356 271° West 232 267 12,000 150 Climbing Cleveland Center
Sun 06:46:40 PM 43.2111 -78.5294 273° West 237 273 12,000  Level Cleveland Center
Sun 06:47:40 PM 43.2275 -78.6317 282° West 243 280 12,000  Level Cleveland Center
Sun 06:48:40 PM 43.2372 -78.7253 278° West 248 285 12,000  Level Cleveland Center
Sun 06:49:40 PM 43.2469 -78.8192 278° West 254 292 12,000 -217 Level Cleveland Center
Sun 06:50:58 PM 43.2500 -78.9167 272° West 250 288 11,500 -522 Descending Toronto Center
Sun 06:51:58 PM 43.2667 -79.0167 283° West 260 299 10,800 -750 Descending Toronto Center
Sun 06:52:58 PM 43.2667 -79.1333 270° West 260 299 10,000 -800 Descending Toronto Center
Sun 06:53:58 PM 43.2833 -79.2167 285° West 260 299 9,200 -700 Descending Toronto Center
Sun 06:54:58 PM 43.3000 -79.3167 283° West 270 311 8,600 -550 Descending Toronto Center
Sun 06:55:58 PM 43.3500 -79.3833 316° Northwest 260 299 8,100 -300 Descending Toronto Center
Sun 06:56:58 PM 43.4333 -79.4000 352° North 260 299 8,000 -50 Descending Toronto Center
Sun 06:57:58 PM 43.5000 -79.4333 340° North 260 299 8,000  Level Toronto Center
Sun 06:58:58 PM 43.5500 -79.4667 334° Northwest 250 288 8,000 -550 Level Toronto Center
Sun 06:59:58 PM 43.5500 -79.5667 270° West 240 276 6,900 -1,050 Descending Toronto Center
Sun 07:00:58 PM 43.5167 -79.6333 235° Southwest 230 265 5,900 -1,050 Descending Toronto Center
Sun 07:01:58 PM 43.4667 -79.7000 224° Southwest 220 253 4,800 -1,100 Descending Toronto Center
Sun 07:02:58 PM 43.4833 -79.7667 289° West 220 253 3,700 -800 Descending Toronto Center
Sun 07:03:58 PM 43.5500 -79.7500 10° North 190 219 3,200 -400 Descending Toronto Center
Sun 07:04:58 PM 43.5833 -79.7000 47° Northeast 170 196 2,900 -650 Descending Toronto Center
Sun 07:05:58 PM 43.6000 -79.6500 65° Northeast 160 184 1,900 -950 Descending Toronto Center
Sun 07:06:58 PM 43.6333 -79.6333 20° North 140 161 1,000 -700 Descending Toronto Center
Sun 07:07:58 PM 43.6500 -79.5833 65° Northeast 130 150 500 -500 Descending Toronto Center

Login

Don't have an account? Register now (free) for customized features, flight alerts, and more!